Impacts METAR Board
IDs:

KEDC - Austin/Executive Arp, TX, US

Updated at: 0800 UTC 26 May 2019
Potential Impact None Slight Moderate High
Time 25/20Z 25/21Z 25/22Z 25/23Z 26/00Z 26/01Z 26/02Z 26/03Z 26/04Z 26/05Z 26/06Z 26/07Z 26/08Z
Temp90 88 90 86 86 82 79 77 77 75 73 73 73
Dewpt70 72 68 68 68 66 66 66 66 68 68 72 72
Altim30.01 29.99 29.98 29.98 29.98 29.98 29.99 30.00 30.02 30.02 30.04 30.02 30.03
VIS9 9 10 10 10 10 10 10 10 10 10 9 8
CIG-- -- -- -- -- -- -- -- -- -- 17 15 21
CoverFEWFEWFEWFEWCLRCLRCLRCLRCLRCLRBKNOVCOVC
FltCatVFRVFRVFRVFRVFRVFRVFRVFRVFRVFRMVFRMVFRMVFR
WX--------------------------
WDir170150160140150150160160170180190180180
WSpd12 12 12 13 10 9 8 8 9 6 3 5 6
WGst19 18 20 19 19 -- -- -- 14 -- -- -- --
Raw hourly METARs
KEDC 251955Z AUTO 17012G19KT 9SM FEW041 FEW050 32/21 A3001 RMK AO2
KEDC 252055Z AUTO 15012G18KT 9SM FEW041 31/22 A2999 RMK AO2
KEDC 252155Z AUTO 16012G20KT 10SM FEW043 32/20 A2998 RMK AO2
KEDC 252255Z AUTO 14013G19KT 10SM FEW046 30/20 A2998 RMK AO2
KEDC 252355Z AUTO 15010G19KT 10SM CLR 30/20 A2998 RMK AO2
KEDC 260055Z AUTO 15009KT 10SM CLR 28/19 A2998 RMK AO2
KEDC 260155Z AUTO 16008KT 10SM CLR 26/19 A2999 RMK AO2
KEDC 260255Z AUTO 16008KT 10SM CLR 25/19 A3000 RMK AO2
KEDC 260355Z AUTO 17009G14KT 10SM CLR 25/19 A3002 RMK AO2
KEDC 260455Z AUTO 18006KT 10SM CLR 24/20 A3002 RMK AO2
KEDC 260555Z AUTO 19003KT 10SM BKN017 23/20 A3004 RMK AO2
KEDC 260655Z AUTO 18005KT 9SM BKN015 BKN019 OVC028 23/22 A3002 RMK AO2
KEDC 260755Z AUTO 18006KT 8SM SCT013 BKN021 OVC033 23/22 A3003 RMK AO2